Time;durP1;ratioP1;P1;durP2;ratioP2;P2;SDS_P1;SDS_P2;PMS_P1;PMS_P2;Temp;Humidity;BMP_temperature;BMP_pressure;BME280_temperature;BME280_humidity;BME280_pressure;Samples;Min_cycle;Max_cycle;Signal;HPM_P1;HPM_P2
2021/10/15 00:00:58;;;;;;;3.22;2.47;;;;;;;4.85;80.87;95200.13;5039041;23;20035;-82
2021/10/15 00:03:23;;;;;;;2.42;2.22;;;;;;;4.89;80.54;95194.44;4989329;28;20050;-81
2021/10/15 00:05:49;;;;;;;2.28;2.17;;;;;;;4.69;82.40;95193.44;4972162;28;20483;-82
2021/10/15 00:08:14;;;;;;;1.90;1.80;;;;;;;4.70;82.03;95184.72;4975688;28;20046;-82
2021/10/15 00:10:40;;;;;;;1.70;1.60;;;;;;;4.76;82.51;95184.00;4990451;28;20023;-82
2021/10/15 00:13:05;;;;;;;2.20;2.10;;;;;;;4.75;82.20;95187.56;4976367;28;20042;-81
2021/10/15 00:15:31;;;;;;;2.22;2.13;;;;;;;4.69;81.90;95183.94;4978418;28;20066;-82
2021/10/15 00:17:56;;;;;;;1.80;1.70;;;;;;;4.69;82.12;95183.16;4953288;28;20037;-82
2021/10/15 00:20:22;;;;;;;2.15;2.05;;;;;;;4.76;82.37;95179.66;4978116;28;20034;-82
2021/10/15 00:22:47;;;;;;;2.30;2.13;;;;;;;4.63;82.04;95176.16;4945572;28;20038;-82
2021/10/15 00:25:13;;;;;;;2.10;2.00;;;;;;;4.66;82.50;95174.00;4945365;28;20034;-83
2021/10/15 00:27:38;;;;;;;2.33;1.60;;;;;;;4.53;83.04;95179.84;4974179;28;20057;-82
2021/10/15 00:30:04;;;;;;;2.13;2.03;;;;;;;4.49;82.90;95185.56;4974238;28;20031;-83
2021/10/15 00:32:29;;;;;;;2.13;2.03;;;;;;;4.45;82.67;95181.75;4936797;28;20046;-82
2021/10/15 00:34:55;;;;;;;2.33;2.15;;;;;;;4.30;83.01;95173.31;4976643;28;20034;-82
2021/10/15 00:37:23;;;;;;;2.05;1.90;;;;;;;4.39;83.35;95178.16;4979226;28;20046;-82
2021/10/15 00:39:49;;;;;;;2.58;2.38;;;;;;;4.51;82.81;95173.28;4979678;28;20035;-82
2021/10/15 00:42:14;;;;;;;2.00;1.90;;;;;;;4.50;82.28;95175.06;4978616;28;20027;-82
2021/10/15 00:44:40;;;;;;;2.05;1.95;;;;;;;4.47;82.70;95172.06;4994105;28;20038;-81
2021/10/15 00:47:05;;;;;;;2.10;2.00;;;;;;;4.46;82.81;95160.97;4960130;28;20031;-81
2021/10/15 00:49:31;;;;;;;1.90;1.80;;;;;;;4.49;81.95;95163.19;4959848;28;20039;-82
2021/10/15 00:51:57;;;;;;;2.85;2.65;;;;;;;4.40;82.50;95153.22;5018158;23;20105;-81
2021/10/15 00:54:22;;;;;;;1.95;1.85;;;;;;;4.35;82.85;95160.66;5004117;28;20041;-81
2021/10/15 00:56:48;;;;;;;1.70;1.60;;;;;;;4.38;82.49;95161.09;5007283;28;20490;-82
2021/10/15 00:59:14;;;;;;;2.00;1.90;;;;;;;4.59;81.79;95157.72;4978887;28;20023;-81
2021/10/15 01:01:39;;;;;;;1.80;1.70;;;;;;;4.58;80.76;95153.56;4996263;28;20026;-82
2021/10/15 01:04:05;;;;;;;1.55;1.50;;;;;;;4.40;82.35;95153.22;5013219;28;20033;-81
2021/10/15 01:06:31;;;;;;;2.10;2.00;;;;;;;4.46;82.21;95153.25;4966188;28;20031;-82
2021/10/15 01:08:57;;;;;;;2.40;2.30;;;;;;;4.52;80.97;95152.50;4982845;28;20096;-82
2021/10/15 01:11:22;;;;;;;2.33;2.22;;;;;;;4.45;81.83;95145.72;4987062;28;20058;-82
2021/10/15 01:13:48;;;;;;;2.03;1.92;;;;;;;4.52;81.72;95146.56;4983252;28;20054;-82
2021/10/15 01:16:14;;;;;;;2.25;2.10;;;;;;;4.42;81.73;95140.94;4967807;28;20466;-81
2021/10/15 01:18:40;;;;;;;2.63;2.20;;;;;;;4.39;81.80;95142.13;5001750;28;20038;-83
2021/10/15 01:21:06;;;;;;;1.90;1.80;;;;;;;4.52;80.71;95142.19;5003307;28;20030;-83
2021/10/15 01:23:31;;;;;;;1.90;1.60;;;;;;;4.55;80.64;95130.72;4987968;28;20026;-83
2021/10/15 01:25:57;;;;;;;1.70;1.60;;;;;;;4.60;80.03;95136.13;4986990;28;20026;-83
2021/10/15 01:28:23;;;;;;;1.80;1.80;;;;;;;4.66;79.23;95137.94;5002781;28;20391;-82
2021/10/15 01:30:55;;;;;;;1.90;1.50;;;;;;;4.57;80.32;95133.94;4984670;28;20037;-82
2021/10/15 01:33:20;;;;;;;1.60;1.60;;;;;;;4.54;80.86;95131.72;4991191;28;20031;-82
2021/10/15 01:35:46;;;;;;;1.80;1.70;;;;;;;4.52;80.68;95136.25;4997382;28;20494;-82
2021/10/15 01:38:12;;;;;;;1.50;1.40;;;;;;;4.54;80.36;95129.13;4996297;28;20097;-82
2021/10/15 01:40:37;;;;;;;1.55;1.45;;;;;;;4.51;80.35;95135.47;4997831;28;20037;-82
2021/10/15 01:43:03;;;;;;;6.85;1.90;;;;;;;4.54;80.34;95129.13;4999184;28;20046;-82
2021/10/15 01:45:29;;;;;;;2.22;1.80;;;;;;;4.62;79.29;95126.44;4984170;28;20038;-83
2021/10/15 01:47:55;;;;;;;1.63;1.52;;;;;;;4.54;80.02;95113.69;4982512;28;20038;-82
2021/10/15 01:50:21;;;;;;;1.55;1.50;;;;;;;4.54;79.74;95118.84;4982666;28;20100;-82
2021/10/15 01:52:47;;;;;;;1.63;1.52;;;;;;;4.67;79.62;95116.38;4997801;28;20035;-82
2021/10/15 01:55:12;;;;;;;1.27;1.27;;;;;;;4.65;79.27;95114.97;4999234;28;20054;-82
2021/10/15 01:57:38;;;;;;;1.48;1.48;;;;;;;4.77;79.12;95111.69;4997050;28;20086;-82
2021/10/15 02:00:04;;;;;;;1.40;1.30;;;;;;;4.89;77.96;95111.97;4979801;28;20031;-81
2021/10/15 02:02:30;;;;;;;1.50;1.45;;;;;;;4.95;78.17;95105.25;4995884;28;20034;-81
2021/10/15 02:04:55;;;;;;;1.38;1.38;;;;;;;4.94;77.49;95104.47;4994952;28;20037;-82
2021/10/15 02:07:21;;;;;;;1.30;1.30;;;;;;;5.04;77.91;95104.09;4996925;28;20034;-82
2021/10/15 02:09:46;;;;;;;1.27;1.27;;;;;;;5.12;77.80;95106.53;4997784;28;20466;-82
2021/10/15 02:12:11;;;;;;;1.20;1.20;;;;;;;5.10;77.29;95105.94;4989136;28;20081;-82
2021/10/15 02:14:37;;;;;;;1.67;1.33;;;;;;;5.15;78.00;95105.34;4996262;28;20034;-83
2021/10/15 02:17:02;;;;;;;1.10;1.10;;;;;;;5.03;78.54;95099.94;5003188;28;20041;-83
2021/10/15 02:19:28;;;;;;;1.40;1.40;;;;;;;5.08;78.47;95105.34;4980924;28;20119;-82
2021/10/15 02:21:53;;;;;;;1.60;1.60;;;;;;;4.90;78.99;95097.31;4996013;28;20106;-82
2021/10/15 02:24:19;;;;;;;1.60;1.60;;;;;;;4.83;79.86;95089.50;4995728;28;20027;-82
2021/10/15 02:26:44;;;;;;;1.30;1.20;;;;;;;4.85;79.40;95100.44;4994868;28;20057;-81
2021/10/15 02:29:10;;;;;;;1.38;1.38;;;;;;;4.92;79.41;95105.63;4993781;28;20038;-83
2021/10/15 02:31:47;;;;;;;1.60;1.50;;;;;;;4.77;79.80;95103.97;4996493;28;20033;-84
2021/10/15 02:34:12;;;;;;;1.63;1.52;;;;;;;4.84;79.94;95098.84;4979757;28;20022;-82
2021/10/15 02:36:38;;;;;;;1.58;1.48;;;;;;;4.82;79.65;95088.72;4995576;28;20104;-82
2021/10/15 02:39:04;;;;;;;1.30;1.30;;;;;;;4.64;80.24;95097.91;4994047;28;20046;-83
2021/10/15 02:41:29;;;;;;;1.40;1.40;;;;;;;4.60;80.27;95096.72;4977850;28;20085;-81
2021/10/15 02:44:01;;;;;;;1.20;1.20;;;;;;;4.54;80.88;95093.09;4996242;28;20038;-82
2021/10/15 02:46:29;;;;;;;1.35;1.35;;;;;;;4.49;81.14;95085.13;4977629;28;20041;-82
2021/10/15 02:48:55;;;;;;;1.38;1.30;;;;;;;4.45;81.06;95089.06;4979013;28;20104;-83
2021/10/15 02:51:20;;;;;;;1.30;1.27;;;;;;;4.41;80.66;95100.72;4995367;28;20030;-83
2021/10/15 02:53:49;;;;;;;1.20;1.20;;;;;;;4.49;80.88;95090.28;4994506;28;20026;-83
2021/10/15 02:56:14;;;;;;;1.35;1.35;;;;;;;4.56;80.13;95086.00;5071236;23;20050;-82
2021/10/15 02:58:40;;;;;;;1.50;1.40;;;;;;;4.65;80.40;95079.69;4986402;28;20039;-83
2021/10/15 03:01:05;;;;;;;1.13;1.13;;;;;;;4.79;80.49;95085.72;4980831;28;20035;-83
2021/10/15 03:03:30;;;;;;;1.38;1.38;;;;;;;4.74;79.12;95083.72;4963605;28;20031;-83
2021/10/15 03:05:56;;;;;;;1.30;1.20;;;;;;;4.77;79.44;95082.56;4955049;28;20031;-84
2021/10/15 03:08:21;;;;;;;8.27;1.50;;;;;;;4.75;79.16;95085.31;4971042;28;20031;-84
2021/10/15 03:10:47;;;;;;;1.27;1.27;;;;;;;4.82;79.02;95086.16;4956386;28;20051;-84
2021/10/15 03:13:12;;;;;;;1.35;1.35;;;;;;;4.82;79.88;95080.19;4954899;28;20495;-84
2021/10/15 03:15:38;;;;;;;1.40;1.40;;;;;;;4.91;79.61;95080.84;4934631;28;20586;-84
2021/10/15 03:18:03;;;;;;;1.30;1.30;;;;;;;5.03;78.68;95077.53;4969977;28;20031;-85
2021/10/15 03:20:29;;;;;;;1.70;1.60;;;;;;;5.09;78.36;95071.63;4972417;28;20070;-84
2021/10/15 03:22:54;;;;;;;1.15;1.15;;;;;;;5.11;78.55;95066.28;4973660;28;20035;-84
2021/10/15 03:25:20;;;;;;;1.85;1.80;;;;;;;5.21;78.59;95066.75;4968536;28;20081;-84
2021/10/15 03:27:45;;;;;;;1.50;1.50;;;;;;;5.13;78.30;95062.53;4993003;28;20035;-84
2021/10/15 03:30:10;;;;;;;3.80;1.85;;;;;;;5.18;79.15;95048.25;4993828;23;20023;-85
2021/10/15 03:32:36;;;;;;;2.05;1.95;;;;;;;5.28;78.85;95054.66;5002399;28;20510;-85
2021/10/15 03:35:01;;;;;;;1.50;1.40;;;;;;;5.30;78.22;95055.25;5001509;28;20041;-84
2021/10/15 03:37:27;;;;;;;3.33;1.70;;;;;;;5.26;78.67;95056.63;4995846;28;20034;-83
2021/10/15 03:39:52;;;;;;;2.55;2.03;;;;;;;5.30;78.86;95049.31;5026700;28;20050;-84
2021/10/15 03:42:18;;;;;;;4.97;2.08;;;;;;;5.31;78.80;95049.09;5010715;28;20042;-85
2021/10/15 03:44:44;;;;;;;2.08;1.98;;;;;;;5.29;79.44;95042.56;4998295;28;20089;-85
2021/10/15 03:47:10;;;;;;;2.20;2.00;;;;;;;5.38;79.23;95049.16;4981903;28;20028;-85
2021/10/15 03:49:36;;;;;;;2.85;2.65;;;;;;;5.36;79.77;95057.06;4994402;28;20037;-85
2021/10/15 03:52:01;;;;;;;2.10;1.80;;;;;;;5.40;79.62;95053.13;4980119;28;20071;-86
2021/10/15 03:54:27;;;;;;;2.58;2.38;;;;;;;5.50;79.61;95041.63;4992967;28;20034;-86
2021/10/15 03:56:58;;;;;;;2.63;2.28;;;;;;;5.50;79.49;95039.84;4980970;28;20026;-85
2021/10/15 03:59:24;;;;;;;12.43;10.05;;;;;;;5.37;80.80;95037.25;4993509;28;20030;-87
2021/10/15 04:01:49;;;;;;;10.07;6.35;;;;;;;5.48;79.89;95028.13;4994401;28;20042;-86
2021/10/15 04:04:15;;;;;;;3.53;3.22;;;;;;;5.47;80.17;95036.84;5009949;28;20025;-87
2021/10/15 04:06:40;;;;;;;3.97;3.35;;;;;;;5.48;80.65;95028.13;5009074;23;20042;-85
2021/10/15 04:09:06;;;;;;;4.40;4.03;;;;;;;5.54;80.49;95035.09;4964544;28;20034;-86
2021/10/15 04:11:31;;;;;;;7.30;4.53;;;;;;;5.52;80.13;95034.47;4980331;28;20452;-86
2021/10/15 04:13:58;;;;;;;4.35;3.97;;;;;;;5.61;80.35;95044.44;4951082;28;20026;-84
2021/10/15 04:16:24;;;;;;;4.85;4.32;;;;;;;5.57;80.43;95032.13;4963300;28;20046;-85
2021/10/15 04:18:49;;;;;;;4.28;3.85;;;;;;;5.61;80.75;95038.50;4963456;28;20034;-86
2021/10/15 04:21:14;;;;;;;6.32;4.45;;;;;;;5.63;80.75;95041.66;5067270;23;21302;-84
2021/10/15 04:23:40;;;;;;;6.65;3.38;;;;;;;5.71;80.45;95044.06;5031899;28;20034;-85
2021/10/15 04:26:05;;;;;;;5.78;4.32;;;;;;;5.68;80.93;95040.06;5004489;28;20065;-83
2021/10/15 04:28:31;;;;;;;5.82;4.47;;;;;;;5.72;80.81;95040.50;4986206;28;20034;-85
2021/10/15 04:30:56;;;;;;;6.65;4.47;;;;;;;5.75;80.55;95034.94;4967529;28;20494;-84
2021/10/15 04:33:22;;;;;;;5.25;4.75;;;;;;;5.69;80.60;95040.88;4983172;28;20034;-84
2021/10/15 04:35:47;;;;;;;9.20;5.03;;;;;;;5.54;80.90;95037.69;4997637;28;20042;-84
2021/10/15 04:38:13;;;;;;;8.93;4.65;;;;;;;5.51;81.36;95048.38;5000123;28;20111;-79
2021/10/15 04:40:38;;;;;;;6.05;4.60;;;;;;;5.51;81.67;95049.16;5008920;28;20038;-84
2021/10/15 04:43:04;;;;;;;10.93;4.55;;;;;;;5.33;82.85;95047.13;5010260;28;20034;-84
2021/10/15 04:45:29;;;;;;;5.63;5.05;;;;;;;5.28;83.43;95034.03;4996346;28;20042;-81
2021/10/15 04:47:58;;;;;;;5.70;5.07;;;;;;;5.33;83.44;95039.38;5006751;28;20037;-82
2021/10/15 04:50:23;;;;;;;5.72;5.15;;;;;;;5.42;83.70;95053.72;4970527;28;20129;-86
2021/10/15 04:52:49;;;;;;;6.95;4.85;;;;;;;5.50;84.02;95049.34;4985950;28;20141;-87
2021/10/15 04:55:14;;;;;;;5.10;4.63;;;;;;;5.53;83.13;95056.69;5002976;28;20102;-86
2021/10/15 04:57:40;;;;;;;6.47;5.25;;;;;;;5.62;82.48;95055.56;5002535;28;20053;-86
2021/10/15 05:00:06;;;;;;;7.88;5.90;;;;;;;5.67;82.74;95048.00;4985930;28;20524;-87
2021/10/15 05:02:31;;;;;;;5.55;4.75;;;;;;;5.62;82.54;95035.72;4985166;28;20034;-87
2021/10/15 05:04:57;;;;;;;7.63;5.32;;;;;;;5.74;82.82;95054.00;5000041;28;20077;-87
2021/10/15 05:07:25;;;;;;;5.65;4.88;;;;;;;5.73;82.00;95039.50;4984184;28;20034;-87
2021/10/15 05:09:50;;;;;;;4.88;4.30;;;;;;;5.72;81.58;95045.66;4983617;28;20049;-86
2021/10/15 05:12:16;;;;;;;4.85;4.35;;;;;;;5.75;81.85;95058.16;5015219;23;20125;-87
2021/10/15 05:14:42;;;;;;;5.50;4.93;;;;;;;5.66;82.08;95054.16;4947951;29;20437;-87
2021/10/15 05:17:07;;;;;;;7.32;5.53;;;;;;;5.58;82.49;95065.47;4971052;28;20114;-87
2021/10/15 05:19:33;;;;;;;5.75;4.70;;;;;;;5.56;82.38;95061.50;4971253;28;20030;-87
2021/10/15 05:21:59;;;;;;;5.18;3.88;;;;;;;5.52;83.12;95053.34;4954085;28;20027;-86
2021/10/15 05:24:25;;;;;;;5.15;3.40;;;;;;;5.41;83.31;95034.06;4955137;28;20042;-87
2021/10/15 05:26:50;;;;;;;3.47;3.22;;;;;;;5.53;83.96;95051.53;4970759;28;20506;-86
2021/10/15 05:29:16;;;;;;;4.05;3.67;;;;;;;5.50;83.54;95057.09;4953094;28;20043;-86
2021/10/15 05:31:41;;;;;;;3.63;3.33;;;;;;;5.49;83.44;95055.50;4971683;28;20062;-86
2021/10/15 05:34:10;;;;;;;4.20;3.80;;;;;;;5.52;82.72;95055.13;4958365;28;20058;-85
2021/10/15 05:36:35;;;;;;;5.65;3.80;;;;;;;5.47;82.59;95036.84;4983266;28;20058;-86
2021/10/15 05:39:01;;;;;;;6.43;3.28;;;;;;;5.46;82.75;95036.06;4955885;28;20057;-85
2021/10/15 05:41:27;;;;;;;3.35;3.15;;;;;;;5.51;82.99;95040.63;4948053;28;20035;-80
2021/10/15 05:43:52;;;;;;;4.15;3.63;;;;;;;5.45;82.75;95046.56;4970199;28;20058;-83
2021/10/15 05:46:18;;;;;;;5.07;4.40;;;;;;;5.38;82.93;95037.03;4971316;28;20036;-82
2021/10/15 05:48:43;;;;;;;11.40;4.00;;;;;;;5.55;83.42;95047.81;4974736;28;20109;-84
2021/10/15 05:51:09;;;;;;;6.35;4.05;;;;;;;5.57;82.27;95047.59;4972334;28;20656;-84
2021/10/15 05:53:35;;;;;;;3.85;3.55;;;;;;;5.47;83.01;95045.38;4956816;28;20024;-85
2021/10/15 06:01:10;;;;;;;4.07;3.78;;;;;;;5.48;83.17;95043.59;4964010;28;20046;-87
2021/10/15 06:03:37;;;;;;;4.65;3.50;;;;;;;5.43;83.50;95042.41;4964418;28;20023;-86
2021/10/15 06:14:19;;;;;;;4.13;3.78;;;;;;;5.68;83.47;95010.91;4958291;28;20037;-86
2021/10/15 06:16:50;;;;;;;3.92;3.53;;;;;;;5.72;83.08;95025.81;4970109;28;20042;-85
2021/10/15 06:19:21;;;;;;;4.32;3.95;;;;;;;5.72;83.32;95025.03;4975809;28;20045;-84
2021/10/15 06:21:46;;;;;;;4.55;4.07;;;;;;;5.61;84.58;95015.28;4972653;28;20031;-85
2021/10/15 06:24:12;;;;;;;4.38;3.95;;;;;;;5.55;84.59;95021.22;4968141;28;20030;-86
2021/10/15 06:26:38;;;;;;;13.18;5.10;;;;;;;5.54;85.11;95029.94;4936234;28;20173;-83
2021/10/15 06:29:03;;;;;;;6.70;5.38;;;;;;;5.52;85.67;95037.06;4970974;28;20033;-84
2021/10/15 06:31:29;;;;;;;5.60;4.90;;;;;;;5.52;85.56;95027.53;4972500;28;20495;-84
2021/10/15 06:33:55;;;;;;;8.40;5.85;;;;;;;5.55;85.63;95023.81;4952902;28;20066;-85
2021/10/15 06:36:20;;;;;;;8.15;5.55;;;;;;;5.46;86.03;95020.59;4966108;28;20035;-85
2021/10/15 06:38:46;;;;;;;8.95;5.78;;;;;;;5.48;85.78;95033.28;4974291;28;20031;-85
2021/10/15 06:41:11;;;;;;;7.50;5.95;;;;;;;5.53;86.16;95033.50;4970478;28;20054;-83
2021/10/15 06:43:37;;;;;;;8.50;5.55;;;;;;;5.58;85.98;95026.78;4967974;28;20054;-85
2021/10/15 06:46:03;;;;;;;6.43;5.82;;;;;;;5.65;86.23;95024.19;4964960;28;20030;-84
2021/10/15 06:48:28;;;;;;;10.80;8.13;;;;;;;5.69;85.68;95030.56;4968233;28;20561;-86
2021/10/15 06:50:53;;;;;;;11.00;7.70;;;;;;;5.81;85.65;95023.03;4965852;28;20085;-84
2021/10/15 06:53:22;;;;;;;11.60;7.82;;;;;;;5.84;85.52;95036.34;4971337;28;20031;-84
2021/10/15 06:55:48;;;;;;;10.90;8.07;;;;;;;5.83;85.30;95033.94;4951353;28;20031;-85
2021/10/15 06:58:13;;;;;;;9.75;8.15;;;;;;;5.86;85.45;95031.00;4950436;28;20027;-85
2021/10/15 07:00:39;;;;;;;13.32;7.93;;;;;;;5.93;85.43;95029.25;4949872;28;20069;-85
2021/10/15 07:03:14;;;;;;;9.88;7.22;;;;;;;5.94;84.62;95023.88;4957604;28;20459;-84
2021/10/15 07:05:40;;;;;;;10.13;7.90;;;;;;;5.94;84.89;95023.88;4967445;28;20501;-84
2021/10/15 07:08:07;;;;;;;14.13;8.73;;;;;;;5.86;85.16;95031.78;4935777;28;20031;-85
2021/10/15 07:10:32;;;;;;;12.68;8.38;;;;;;;5.83;85.49;95010.72;4951999;28;20044;-84
2021/10/15 07:12:58;;;;;;;10.75;8.15;;;;;;;5.84;85.75;95007.94;4955040;28;20574;-86
2021/10/15 07:15:24;;;;;;;14.70;9.77;;;;;;;5.87;85.92;95002.41;4959640;28;20109;-82
2021/10/15 07:17:49;;;;;;;9.40;7.68;;;;;;;5.88;85.57;95003.22;4973251;28;20065;-80
2021/10/15 07:20:15;;;;;;;13.15;8.70;;;;;;;5.94;85.65;95016.13;4968211;28;20030;-86
2021/10/15 07:22:41;;;;;;;12.00;8.15;;;;;;;5.91;85.56;95013.94;4954439;28;20041;-85
2021/10/15 07:25:07;;;;;;;9.10;7.50;;;;;;;5.90;85.35;95017.53;4969152;28;20046;-87
2021/10/15 07:27:34;;;;;;;14.05;7.97;;;;;;;5.83;85.95;95019.25;4972606;28;20035;-83
2021/10/15 07:30:01;;;;;;;9.55;8.02;;;;;;;5.77;86.30;95016.69;4973533;28;20027;-86
2021/10/15 07:32:26;;;;;;;10.18;7.63;;;;;;;5.75;86.74;95026.41;4941431;28;20382;-87
2021/10/15 07:34:52;;;;;;;12.50;8.25;;;;;;;5.74;86.43;95023.03;4952215;28;20088;-87
2021/10/15 07:37:17;;;;;;;10.13;8.18;;;;;;;5.73;86.48;95016.28;4963328;28;20042;-87
2021/10/15 07:39:43;;;;;;;13.35;8.30;;;;;;;5.70;87.02;95014.91;4933519;28;20030;-87
2021/10/15 07:42:08;;;;;;;9.68;7.22;;;;;;;5.77;86.57;95016.69;4950664;28;20078;-87
2021/10/15 07:44:34;;;;;;;11.25;7.88;;;;;;;5.77;86.61;95022.63;4972944;28;20158;-86
2021/10/15 07:46:59;;;;;;;9.18;6.97;;;;;;;5.75;86.79;95011.72;4972762;28;20036;-87
2021/10/15 07:49:25;;;;;;;13.15;7.97;;;;;;;5.85;86.70;95013.91;4959334;28;20426;-86
2021/10/15 07:51:50;;;;;;;8.95;7.68;;;;;;;5.96;85.80;95008.19;4958857;28;20030;-87
2021/10/15 07:54:16;;;;;;;11.40;7.10;;;;;;;6.00;85.49;95002.44;4957314;28;20034;-87
2021/10/15 07:56:42;;;;;;;11.27;6.90;;;;;;;6.06;85.29;95002.66;4958294;28;20046;-87
2021/10/15 07:59:07;;;;;;;9.70;6.85;;;;;;;6.03;84.99;95008.22;4953154;28;20063;-84
2021/10/15 08:01:33;;;;;;;12.70;7.80;;;;;;;6.01;85.74;95003.22;4935327;28;20480;-85
2021/10/15 08:03:59;;;;;;;10.38;8.55;;;;;;;6.04;85.72;95007.22;4948171;28;20031;-85
2021/10/15 08:06:25;;;;;;;9.98;7.55;;;;;;;6.02;85.60;95002.25;4974766;23;20432;-85
2021/10/15 08:08:51;;;;;;;10.82;7.07;;;;;;;6.03;85.76;95006.41;4994442;28;20397;-84
2021/10/15 08:11:17;;;;;;;10.43;6.85;;;;;;;6.08;85.23;95013.56;4994441;28;20050;-85
2021/10/15 08:13:42;;;;;;;10.93;7.13;;;;;;;6.20;85.34;95019.72;4977867;28;20423;-85
2021/10/15 08:16:08;;;;;;;10.05;6.38;;;;;;;6.34;84.34;95018.69;4995107;28;20035;-85
2021/10/15 08:18:33;;;;;;;12.00;6.88;;;;;;;6.34;84.04;95021.28;4992949;28;20041;-85
2021/10/15 08:20:59;;;;;;;10.27;7.60;;;;;;;6.04;85.56;95013.16;4993979;28;20030;-84
2021/10/15 08:23:25;;;;;;;10.45;6.68;;;;;;;5.90;85.98;95012.38;4977779;28;20524;-84
2021/10/15 08:25:51;;;;;;;8.88;6.70;;;;;;;5.89;86.43;95009.97;4962260;28;20026;-85
2021/10/15 08:28:16;;;;;;;14.43;6.68;;;;;;;5.90;86.27;95011.56;4960626;28;20038;-84
2021/10/15 08:30:43;;;;;;;10.68;7.28;;;;;;;5.83;86.78;95006.34;4993683;28;20038;-85
2021/10/15 08:33:09;;;;;;;9.07;7.22;;;;;;;5.84;86.98;95007.94;4991884;28;20041;-85
2021/10/15 08:35:34;;;;;;;8.75;6.50;;;;;;;5.96;87.14;94998.66;4994530;28;20418;-84
2021/10/15 08:38:00;;;;;;;9.88;7.35;;;;;;;6.04;86.28;95007.22;4977051;28;20097;-84
2021/10/15 08:40:27;;;;;;;11.27;7.03;;;;;;;6.19;85.78;94994.91;4993991;28;20031;-84
2021/10/15 08:42:54;;;;;;;10.70;6.85;;;;;;;6.09;84.87;95007.41;4977195;28;20065;-84
2021/10/15 08:45:40;;;;;;;12.38;7.45;;;;;;;6.17;85.06;95007.19;4977538;28;20041;-84
2021/10/15 08:48:06;;;;;;;11.45;6.85;;;;;;;6.19;84.46;95006.03;4993946;28;20044;-84
2021/10/15 08:50:32;;;;;;;8.73;7.18;;;;;;;6.19;84.39;95005.22;4996867;28;20027;-84
2021/10/15 08:52:57;;;;;;;7.95;6.00;;;;;;;6.30;83.90;94996.84;4977829;28;20038;-84
2021/10/15 08:55:24;;;;;;;8.27;5.95;;;;;;;6.32;83.40;95000.81;4959897;28;20034;-84
2021/10/15 08:57:54;;;;;;;8.50;5.57;;;;;;;6.34;83.36;94998.03;4993899;28;20114;-84
2021/10/15 09:00:32;;;;;;;8.73;5.95;;;;;;;6.37;83.46;95002.84;4995538;23;20050;31
2021/10/15 09:03:20;;;;;;;8.55;6.05;;;;;;;6.44;82.61;94998.44;4967495;28;20047;-86
2021/10/15 09:06:00;;;;;;;10.55;6.25;;;;;;;6.52;82.25;94995.66;4966500;28;20035;-86
2021/10/15 09:08:27;;;;;;;10.93;6.28;;;;;;;6.63;82.79;94997.59;4965205;28;20054;-86
2021/10/15 09:10:52;;;;;;;10.02;6.10;;;;;;;6.75;81.53;95000.34;4947616;28;20027;-86
2021/10/15 09:13:20;;;;;;;8.55;6.82;;;;;;;6.88;81.31;94995.16;4983330;23;20391;-86
2021/10/15 09:15:49;;;;;;;8.73;5.50;;;;;;;6.88;80.74;95000.31;4985155;28;20104;-86
2021/10/15 09:18:20;;;;;;;8.15;6.07;;;;;;;6.84;80.32;94998.38;4984443;28;20072;-85
2021/10/15 09:20:46;;;;;;;7.28;6.18;;;;;;;6.92;80.83;94995.53;4953394;28;20062;-86
2021/10/15 09:23:12;;;;;;;8.20;6.65;;;;;;;6.91;81.05;94988.78;4972032;28;20510;-86
2021/10/15 09:25:40;;;;;;;9.20;6.38;;;;;;;6.96;81.68;94994.13;4973160;28;20049;-86
2021/10/15 09:28:38;;;;;;;7.28;5.97;;;;;;;7.04;80.67;94996.50;4976028;28;20042;-86
2021/10/15 09:31:03;;;;;;;8.82;5.20;;;;;;;7.03;79.79;94992.31;5015496;28;20097;-86
2021/10/15 09:33:29;;;;;;;7.95;6.65;;;;;;;6.99;79.61;94995.50;4974307;28;20035;-86
2021/10/15 09:36:08;;;;;;;11.23;6.10;;;;;;;7.05;79.99;95003.25;5043990;23;20053;-85
2021/10/15 09:38:34;;;;;;;10.70;5.95;;;;;;;7.00;79.40;94997.91;5015570;28;20053;-86
2021/10/15 09:40:59;;;;;;;16.42;5.65;;;;;;;7.08;79.44;95002.84;4989364;28;20088;-86
2021/10/15 09:43:33;;;;;;;7.15;5.57;;;;;;;7.13;79.25;95002.22;4976745;28;20112;-86
2021/10/15 09:45:58;;;;;;;8.88;5.88;;;;;;;7.04;78.77;94999.09;5010509;28;20054;-87
2021/10/15 09:48:24;;;;;;;8.95;6.13;;;;;;;7.03;79.34;95000.09;4988057;28;20562;-86
2021/10/15 09:51:19;;;;;;;9.00;5.75;;;;;;;7.03;79.51;95007.84;5009051;28;20026;-85
2021/10/15 09:54:09;;;;;;;12.85;6.55;;;;;;;7.22;79.07;95009.53;5007150;28;20041;-86
2021/10/15 09:56:39;;;;;;;15.10;7.72;;;;;;;7.31;79.23;95004.13;5009960;28;20038;-85
2021/10/15 09:59:06;;;;;;;8.93;7.20;;;;;;;7.36;78.75;95001.72;4991283;28;20031;-85
2021/10/15 10:01:33;;;;;;;8.68;6.43;;;;;;;7.45;78.46;95009.03;4992758;28;20076;-84
2021/10/15 10:03:59;;;;;;;12.90;7.20;;;;;;;7.55;77.56;95006.00;4975532;28;20045;-86
2021/10/15 10:06:24;;;;;;;7.78;6.97;;;;;;;7.62;77.81;95009.31;4990853;28;20030;-86
2021/10/15 10:08:50;;;;;;;9.18;7.13;;;;;;;7.70;77.57;95003.91;4975766;28;20053;-86
2021/10/15 10:11:15;;;;;;;9.02;6.03;;;;;;;7.94;77.26;94993.78;4971481;28;20033;-86
2021/10/15 10:13:41;;;;;;;11.30;6.43;;;;;;;7.87;76.54;95000.81;4991620;28;20034;-85
2021/10/15 10:16:06;;;;;;;7.85;6.40;;;;;;;7.88;77.65;94995.44;4974325;28;20564;-86
2021/10/15 10:18:34;;;;;;;10.90;7.57;;;;;;;8.07;76.94;94998.88;4989644;28;20054;-86
2021/10/15 10:21:40;;;;;;;10.68;6.38;;;;;;;7.82;76.65;94988.53;4975199;28;20058;-86
2021/10/15 10:24:09;;;;;;;13.15;6.75;;;;;;;7.91;76.45;94989.03;4977374;28;20069;-86
2021/10/15 10:26:44;;;;;;;8.30;6.30;;;;;;;7.91;76.56;94991.63;4992373;28;20438;-87
2021/10/15 10:29:10;;;;;;;12.02;7.35;;;;;;;7.71;76.47;94989.97;4972403;28;20039;-86
2021/10/15 10:31:35;;;;;;;13.65;7.28;;;;;;;7.60;77.01;94982.88;5006562;28;20030;-86
2021/10/15 10:34:05;;;;;;;12.88;6.22;;;;;;;7.61;77.78;94976.69;5003532;28;20029;-86
2021/10/15 10:36:33;;;;;;;9.23;6.25;;;;;;;7.58;77.88;94986.66;4989414;28;20048;-86
2021/10/15 10:39:20;;;;;;;12.45;8.07;;;;;;;7.46;78.18;94976.97;4986776;28;20069;-86
2021/10/15 10:42:14;;;;;;;10.68;6.10;;;;;;;7.38;78.50;94968.69;5022474;28;20034;-86
2021/10/15 10:44:49;;;;;;;9.88;6.18;;;;;;;7.20;79.24;94972.75;4989765;28;20575;-86
2021/10/15 10:47:19;;;;;;;9.23;6.28;;;;;;;7.23;79.66;94976.72;5011320;28;20201;-85
2021/10/15 10:50:00;;;;;;;9.57;7.03;;;;;;;7.22;79.53;94970.75;4974950;28;20044;-86
2021/10/15 10:52:25;;;;;;;12.55;6.85;;;;;;;7.16;80.48;94965.63;5006669;28;20040;-86
2021/10/15 10:54:51;;;;;;;12.88;6.30;;;;;;;7.22;80.11;94960.41;4975307;28;20027;-86
2021/10/15 10:57:19;;;;;;;12.00;6.95;;;;;;;7.27;79.78;94969.31;5005346;28;20065;-86
2021/10/15 10:59:44;;;;;;;9.00;7.05;;;;;;;7.27;79.80;94962.34;5006772;28;20036;-85
2021/10/15 11:02:10;;;;;;;9.30;7.88;;;;;;;7.43;79.29;94961.09;4992852;28;20066;-86
2021/10/15 11:04:42;;;;;;;9.77;7.13;;;;;;;7.66;79.83;94961.34;5007113;28;20034;-86
2021/10/15 11:07:16;;;;;;;11.47;7.60;;;;;;;7.74;78.27;94963.66;5006043;28;20030;-86
2021/10/15 11:09:58;;;;;;;9.10;7.45;;;;;;;7.80;77.98;94952.47;5005423;28;20019;-86
2021/10/15 11:12:26;;;;;;;7.32;6.05;;;;;;;7.90;77.68;94944.22;5008963;28;20038;-86
2021/10/15 11:14:56;;;;;;;10.55;7.25;;;;;;;7.98;77.12;94946.56;5006912;28;20038;-87
2021/10/15 11:17:31;;;;;;;10.60;5.70;;;;;;;7.95;77.13;94935.81;5001483;28;20041;-83
2021/10/15 11:20:07;;;;;;;10.27;6.10;;;;;;;7.99;77.08;94930.03;5022163;28;20038;-86
2021/10/15 11:22:33;;;;;;;6.32;4.97;;;;;;;8.11;75.47;94927.50;5020493;28;20033;-85
2021/10/15 11:24:59;;;;;;;7.72;4.82;;;;;;;8.16;75.77;94929.47;5004653;28;20049;-85
2021/10/15 11:27:24;;;;;;;9.18;4.82;;;;;;;8.21;75.04;94933.00;4987280;28;20046;-85
2021/10/15 11:29:55;;;;;;;5.30;4.80;;;;;;;8.24;75.32;94916.25;4973363;28;20025;-85
2021/10/15 11:32:34;;;;;;;5.30;4.82;;;;;;;8.19;75.06;94916.91;4989157;28;20037;-85
2021/10/15 11:35:09;;;;;;;6.20;5.38;;;;;;;8.05;75.53;94918.00;5007946;28;20038;-84
2021/10/15 11:37:56;;;;;;;5.05;4.60;;;;;;;7.85;76.08;94912.22;5003430;28;20042;-86
2021/10/15 11:40:57;;;;;;;7.03;5.60;;;;;;;7.92;75.46;94900.00;5005650;28;20059;-85
2021/10/15 11:43:27;;;;;;;5.32;4.90;;;;;;;7.94;76.52;94895.41;4999788;28;20042;-84
2021/10/15 11:45:56;;;;;;;6.30;5.70;;;;;;;7.94;76.49;94895.41;5005356;28;20144;-85
2021/10/15 11:48:37;;;;;;;8.85;5.45;;;;;;;7.89;76.22;94882.31;5003100;28;20073;-85
2021/10/15 11:51:10;;;;;;;11.77;6.35;;;;;;;8.05;76.63;94872.19;5004985;28;20096;-87
2021/10/15 11:53:40;;;;;;;6.55;5.57;;;;;;;8.03;77.06;94863.06;4986429;28;20042;-85